createdAt,value
2022-11-16T00:02:12.908Z,100.00
2022-11-16T00:04:39.509Z,100.00
2022-11-16T00:07:06.496Z,100.00
2022-11-16T00:09:33.578Z,100.00
2022-11-16T00:12:03.643Z,100.00
2022-11-16T00:14:33.796Z,100.00
2022-11-16T00:17:00.873Z,100.00
2022-11-16T00:19:27.779Z,100.00
2022-11-16T00:21:54.998Z,100.00
2022-11-16T00:24:23.305Z,100.00
2022-11-16T00:26:50.486Z,100.00
2022-11-16T00:29:25.576Z,100.00
2022-11-16T00:31:53.683Z,100.00
2022-11-16T00:34:21.344Z,100.00
2022-11-16T00:36:48.109Z,100.00
2022-11-16T00:39:16.297Z,100.00
2022-11-16T00:41:43.239Z,100.00
2022-11-16T00:44:11.005Z,100.00
2022-11-16T00:46:37.748Z,100.00
2022-11-16T00:49:05.504Z,100.00
2022-11-16T00:51:32.962Z,100.00
2022-11-16T00:53:59.524Z,100.00
2022-11-16T00:56:26.037Z,100.00
2022-11-16T00:58:52.482Z,100.00
2022-11-16T01:01:19.438Z,100.00
2022-11-16T01:03:46.029Z,100.00
2022-11-16T01:06:14.297Z,100.00
2022-11-16T01:08:41.938Z,100.00
2022-11-16T01:11:28.247Z,100.00
2022-11-16T01:13:55.649Z,100.00
2022-11-16T01:16:23.562Z,100.00
2022-11-16T01:18:52.282Z,100.00
2022-11-16T01:21:19.653Z,100.00
2022-11-16T01:23:46.449Z,100.00
2022-11-16T01:26:12.909Z,100.00
2022-11-16T01:28:39.364Z,100.00
2022-11-16T01:31:06.141Z,100.00
2022-11-16T01:33:32.630Z,100.00
2022-11-16T01:35:59.154Z,100.00
2022-11-16T01:38:29.520Z,100.00
2022-11-16T01:40:56.759Z,100.00
2022-11-16T01:43:25.411Z,100.00
2022-11-16T01:45:52.290Z,100.00
2022-11-16T01:48:29.697Z,100.00
2022-11-16T01:50:57.585Z,100.00
2022-11-16T01:53:24.874Z,100.00
2022-11-16T01:55:52.164Z,100.00
2022-11-16T01:58:23.091Z,100.00
2022-11-16T02:00:49.736Z,100.00
2022-11-16T02:03:19.040Z,100.00
2022-11-16T02:06:26.634Z,100.00
2022-11-16T02:09:45.907Z,100.00
2022-11-16T02:12:37.579Z,100.00
2022-11-16T02:15:15.148Z,100.00
2022-11-16T02:17:51.933Z,100.00
2022-11-16T02:20:44.323Z,100.00
2022-11-16T02:23:34.957Z,100.00
2022-11-16T02:26:19.059Z,100.00
2022-11-16T02:29:04.055Z,100.00
2022-11-16T02:31:37.763Z,100.00
2022-11-16T02:34:08.524Z,100.00
2022-11-16T02:36:38.140Z,100.00
2022-11-16T02:39:10.410Z,100.00
2022-11-16T02:41:41.373Z,100.00
2022-11-16T02:44:25.772Z,100.00
2022-11-16T02:46:58.652Z,100.00
2022-11-16T02:49:28.819Z,100.00
2022-11-16T02:51:56.450Z,100.00
2022-11-16T02:54:24.596Z,100.00
2022-11-16T02:57:16.757Z,100.00
2022-11-16T02:59:48.078Z,100.00
2022-11-16T03:02:46.763Z,100.00
2022-11-16T03:05:32.048Z,100.00
2022-11-16T03:08:16.878Z,100.00
2022-11-16T03:11:05.944Z,100.00
2022-11-16T03:13:34.839Z,100.00
2022-11-16T03:16:07.924Z,100.00
2022-11-16T03:18:34.800Z,100.00
2022-11-16T03:21:17.510Z,100.00
2022-11-16T03:23:45.893Z,100.00
2022-11-16T03:26:17.012Z,100.00
2022-11-16T03:28:59.875Z,100.00
2022-11-16T03:31:37.708Z,100.00
2022-11-16T03:34:10.448Z,100.00
2022-11-16T03:36:41.681Z,100.00
2022-11-16T03:39:18.924Z,100.00
2022-11-16T03:41:48.216Z,100.00
2022-11-16T03:44:16.805Z,100.00
2022-11-16T03:46:45.341Z,100.00
2022-11-16T03:49:11.937Z,100.00
2022-11-16T03:51:38.762Z,100.00
2022-11-16T03:54:05.593Z,100.00
2022-11-16T03:56:32.037Z,100.00
2022-11-16T03:58:58.493Z,100.00
2022-11-16T04:01:25.004Z,100.00
2022-11-16T04:03:51.491Z,100.00
2022-11-16T04:06:36.368Z,100.00
2022-11-16T04:09:21.688Z,100.00
2022-11-16T04:12:06.856Z,100.00
2022-11-16T04:14:52.220Z,100.00
2022-11-16T04:17:38.022Z,100.00
2022-11-16T04:20:24.134Z,100.00
2022-11-16T04:23:29.681Z,100.00
2022-11-16T04:25:56.532Z,100.00
2022-11-16T04:28:29.093Z,100.00
2022-11-16T04:31:17.042Z,100.00
2022-11-16T04:34:02.872Z,100.00
2022-11-16T04:36:47.662Z,100.00
2022-11-16T04:39:14.245Z,100.00
2022-11-16T04:41:59.300Z,100.00
2022-11-16T04:44:45.670Z,100.00
2022-11-16T04:47:12.141Z,100.00
2022-11-16T04:49:38.541Z,100.00
2022-11-16T04:52:04.985Z,100.00
2022-11-16T04:54:31.422Z,100.00
2022-11-16T04:56:57.901Z,100.00
2022-11-16T04:59:24.387Z,100.00
2022-11-16T05:02:09.017Z,100.00
2022-11-16T05:04:37.329Z,100.00
2022-11-16T05:07:04.241Z,100.00
2022-11-16T05:09:30.668Z,100.00
2022-11-16T05:11:57.101Z,100.00
2022-11-16T05:14:23.541Z,100.00
2022-11-16T05:16:49.992Z,100.00
2022-11-16T05:19:34.655Z,100.00
2022-11-16T05:22:01.139Z,100.00
2022-11-16T05:24:33.445Z,100.00
2022-11-16T05:27:12.231Z,100.00
2022-11-16T05:29:39.049Z,100.00
2022-11-16T05:32:06.639Z,100.00
2022-11-16T05:34:33.700Z,100.00
2022-11-16T05:37:00.195Z,100.00
2022-11-16T05:39:27.091Z,100.00
2022-11-16T05:41:54.073Z,100.00
2022-11-16T05:44:20.738Z,100.00
2022-11-16T05:46:47.237Z,100.00
2022-11-16T05:49:14.440Z,100.00
2022-11-16T05:51:42.948Z,100.00
2022-11-16T05:54:12.864Z,100.00
2022-11-16T05:56:39.578Z,100.00
2022-11-16T05:59:06.240Z,100.00
2022-11-16T06:01:32.796Z,100.00
2022-11-16T06:04:00.445Z,100.00
2022-11-16T06:06:27.759Z,100.00
2022-11-16T06:08:54.843Z,100.00
2022-11-16T06:11:21.600Z,100.00
2022-11-16T06:13:48.052Z,100.00
2022-11-16T06:16:14.517Z,100.00
2022-11-16T06:18:43.385Z,100.00
2022-11-16T06:21:10.934Z,100.00
2022-11-16T06:23:37.526Z,100.00
2022-11-16T06:26:05.323Z,100.00
2022-11-16T06:28:33.245Z,100.00
2022-11-16T06:31:00.181Z,100.00
2022-11-16T06:33:32.219Z,100.00
2022-11-16T06:36:00.095Z,100.00
2022-11-16T06:38:27.367Z,100.00
2022-11-16T06:40:56.400Z,100.00
2022-11-16T06:43:24.151Z,100.00
2022-11-16T06:45:52.658Z,100.00
2022-11-16T06:48:20.262Z,100.00
2022-11-16T06:50:51.934Z,100.00
2022-11-16T06:53:19.262Z,100.00
2022-11-16T06:55:45.710Z,100.00
2022-11-16T06:58:12.324Z,100.00
2022-11-16T07:00:38.796Z,100.00
2022-11-16T07:03:05.520Z,100.00
2022-11-16T07:05:32.461Z,100.00
2022-11-16T07:07:59.220Z,100.00
2022-11-16T07:10:25.889Z,100.00
2022-11-16T07:12:52.446Z,100.00
2022-11-16T07:15:19.460Z,100.00
2022-11-16T07:17:45.908Z,100.00
2022-11-16T07:20:12.631Z,100.00
2022-11-16T07:22:39.194Z,100.00
2022-11-16T07:25:06.164Z,100.00
2022-11-16T07:27:32.577Z,100.00
2022-11-16T07:29:59.013Z,100.00
2022-11-16T07:32:25.458Z,100.00
2022-11-16T07:34:51.890Z,100.00
2022-11-16T07:37:18.329Z,100.00
2022-11-16T07:39:45.699Z,100.00
2022-11-16T07:42:12.377Z,100.00
2022-11-16T07:44:39.380Z,100.00
2022-11-16T07:47:06.121Z,100.00
2022-11-16T07:49:32.640Z,100.00
2022-11-16T07:51:59.148Z,100.00
2022-11-16T07:54:25.616Z,100.00
2022-11-16T07:56:54.823Z,100.00
2022-11-16T07:59:21.243Z,100.00
2022-11-16T08:01:48.312Z,100.00
2022-11-16T08:04:17.525Z,100.00
2022-11-16T08:06:44.609Z,100.00
2022-11-16T08:09:11.050Z,100.00
2022-11-16T08:11:38.009Z,100.00
2022-11-16T08:14:04.555Z,100.00
2022-11-16T08:16:33.225Z,100.00
2022-11-16T08:19:01.248Z,100.00
2022-11-16T08:21:27.741Z,100.00
2022-11-16T08:23:58.520Z,100.00
2022-11-16T08:26:25.754Z,100.00
2022-11-16T08:28:53.740Z,100.00
2022-11-16T08:31:24.140Z,100.00
2022-11-16T08:33:51.849Z,100.00
2022-11-16T08:36:19.087Z,100.00
2022-11-16T08:38:47.921Z,100.00
2022-11-16T08:41:15.365Z,100.00
2022-11-16T08:43:42.791Z,100.00
2022-11-16T08:46:10.736Z,100.00
2022-11-16T08:48:38.222Z,100.00
2022-11-16T08:51:17.493Z,100.00
2022-11-16T08:53:44.884Z,100.00
2022-11-16T08:56:15.394Z,100.00
2022-11-16T08:58:43.667Z,100.00
2022-11-16T09:01:13.770Z,100.00
2022-11-16T09:03:41.180Z,100.00
2022-11-16T09:06:09.374Z,100.00
2022-11-16T09:08:37.283Z,100.00
2022-11-16T09:11:05.412Z,100.00
2022-11-16T09:13:31.939Z,100.00
2022-11-16T09:15:59.649Z,100.00
2022-11-16T09:18:27.344Z,100.00
2022-11-16T09:20:53.906Z,100.00
2022-11-16T09:23:25.102Z,100.00
2022-11-16T09:25:52.338Z,100.00
2022-11-16T09:28:19.667Z,100.00
2022-11-16T09:30:48.372Z,100.00
2022-11-16T09:33:14.800Z,100.00
2022-11-16T09:35:41.286Z,100.00
2022-11-16T09:38:09.851Z,100.00
2022-11-16T09:40:44.783Z,100.00
2022-11-16T09:43:32.673Z,100.00
2022-11-16T09:46:22.920Z,100.00
2022-11-16T09:48:50.909Z,100.00
2022-11-16T09:51:20.380Z,100.00
2022-11-16T09:54:13.761Z,100.00
2022-11-16T09:56:42.346Z,100.00
2022-11-16T09:59:12.246Z,100.00
2022-11-16T10:01:48.058Z,100.00
2022-11-16T10:04:43.701Z,100.00
2022-11-16T10:07:16.939Z,100.00
2022-11-16T10:09:46.818Z,100.00
2022-11-16T10:12:18.532Z,100.00
2022-11-16T10:15:17.495Z,100.00
2022-11-16T10:17:57.726Z,100.00
2022-11-16T10:20:45.576Z,100.00
2022-11-16T10:23:15.007Z,100.00
2022-11-16T10:25:44.649Z,100.00
2022-11-16T10:28:34.110Z,100.00
2022-11-16T10:31:13.799Z,100.00
2022-11-16T10:33:44.253Z,100.00
2022-11-16T10:36:15.644Z,100.00
2022-11-16T10:38:44.161Z,100.00
2022-11-16T10:41:17.992Z,100.00
2022-11-16T10:43:45.536Z,100.00
2022-11-16T10:46:25.315Z,100.00
2022-11-16T10:49:19.379Z,98.92
2022-11-16T10:51:45.815Z,98.30
2022-11-16T10:54:17.300Z,99.20
2022-11-16T10:56:47.084Z,99.57
2022-11-16T10:59:18.371Z,98.60
2022-11-16T11:01:50.421Z,98.77
2022-11-16T11:04:23.027Z,98.17
2022-11-16T11:06:52.850Z,97.66
2022-11-16T11:09:27.639Z,96.92
2022-11-16T11:12:20.045Z,95.67
2022-11-16T11:15:12.299Z,97.43
2022-11-16T11:17:42.165Z,98.23
2022-11-16T11:20:17.740Z,96.20
2022-11-16T11:22:53.116Z,95.71
2022-11-16T11:25:24.566Z,96.96
2022-11-16T11:28:03.303Z,97.39
2022-11-16T11:30:30.030Z,98.35
2022-11-16T11:32:58.659Z,97.73
2022-11-16T11:35:29.888Z,96.94
2022-11-16T11:38:04.718Z,96.90
2022-11-16T11:40:34.015Z,96.28
2022-11-16T11:43:02.850Z,95.55
2022-11-16T11:45:47.936Z,93.28
2022-11-16T11:48:24.445Z,94.58
2022-11-16T11:50:56.733Z,92.58
2022-11-16T11:53:42.076Z,94.09
2022-11-16T11:56:11.994Z,94.44
2022-11-16T11:58:40.603Z,93.72
2022-11-16T12:01:18.416Z,92.69
2022-11-16T12:04:08.920Z,94.09
2022-11-16T12:07:03.351Z,93.93
2022-11-16T12:09:50.430Z,91.62
2022-11-16T12:12:29.336Z,91.29
2022-11-16T12:15:50.249Z,91.14
2022-11-16T12:18:34.979Z,90.09
2022-11-16T12:21:14.779Z,88.45
2022-11-16T12:23:47.224Z,89.88
2022-11-16T12:26:28.781Z,88.84
2022-11-16T12:29:24.814Z,89.84
2022-11-16T12:32:09.085Z,89.35
2022-11-16T12:35:07.491Z,86.18
2022-11-16T12:37:55.638Z,86.53
2022-11-16T12:40:33.972Z,86.19
2022-11-16T12:43:15.533Z,85.71
2022-11-16T12:45:58.837Z,85.55
2022-11-16T12:48:37.069Z,83.69
2022-11-16T12:51:31.952Z,84.65
2022-11-16T12:54:07.690Z,84.60
2022-11-16T12:56:52.916Z,85.56
2022-11-16T12:59:44.585Z,83.56
2022-11-16T13:02:36.020Z,83.66
2022-11-16T13:05:17.118Z,83.43
2022-11-16T13:07:48.230Z,81.70
2022-11-16T13:10:23.275Z,81.91
2022-11-16T13:13:21.852Z,80.94
2022-11-16T13:15:46.293Z,82.85
2022-11-16T13:18:17.637Z,81.30
2022-11-16T13:20:53.126Z,82.64
2022-11-16T13:23:31.952Z,82.15
2022-11-16T13:26:10.274Z,78.45
2022-11-16T13:28:45.839Z,79.50
2022-11-16T13:31:31.520Z,80.39
2022-11-16T13:34:03.009Z,79.81
2022-11-16T13:36:32.381Z,79.85
2022-11-16T13:38:58.821Z,79.87
2022-11-16T13:41:28.870Z,79.64
2022-11-16T13:43:55.835Z,79.74
2022-11-16T13:46:54.225Z,80.39
2022-11-16T13:49:36.222Z,81.04
2022-11-16T13:52:22.505Z,81.25
2022-11-16T13:54:53.282Z,81.45
2022-11-16T13:57:32.546Z,81.17
2022-11-16T14:00:01.913Z,80.41
2022-11-16T14:02:33.408Z,80.63
2022-11-16T14:05:13.914Z,81.04
2022-11-16T14:07:49.743Z,81.05
2022-11-16T14:10:34.660Z,81.25
2022-11-16T14:13:04.357Z,81.59
2022-11-16T14:15:36.684Z,81.18
2022-11-16T14:18:11.963Z,82.06
2022-11-16T14:20:38.463Z,81.51
2022-11-16T14:23:42.264Z,81.42
2022-11-16T14:26:47.721Z,82.39
2022-11-16T14:29:36.512Z,81.34
2022-11-16T14:32:15.960Z,79.35
2022-11-16T14:34:46.619Z,76.14
2022-11-16T14:37:28.589Z,72.47
2022-11-16T14:40:14.925Z,71.13
2022-11-16T14:43:17.756Z,68.87
2022-11-16T14:45:39.208Z,67.39
2022-11-16T14:48:14.793Z,66.62
2022-11-16T14:50:44.665Z,66.27
2022-11-16T14:53:16.811Z,66.57
2022-11-16T14:55:45.906Z,65.57
2022-11-16T14:58:23.479Z,68.31
2022-11-16T15:01:08.024Z,70.83
2022-11-16T15:03:40.354Z,72.87
2022-11-16T15:06:07.839Z,73.83
2022-11-16T15:08:43.138Z,74.38
2022-11-16T15:11:25.858Z,75.00
2022-11-16T15:13:53.734Z,76.14
2022-11-16T15:16:20.586Z,76.98
2022-11-16T15:19:01.195Z,77.39
2022-11-16T15:21:28.613Z,77.63
2022-11-16T15:24:23.621Z,78.13
2022-11-16T15:26:41.460Z,78.98
2022-11-16T15:29:15.354Z,78.78
2022-11-16T15:31:42.393Z,78.84
2022-11-16T15:34:13.165Z,79.53
2022-11-16T15:36:41.050Z,79.91
2022-11-16T15:39:18.725Z,80.61
2022-11-16T15:41:46.110Z,80.93
2022-11-16T15:44:17.055Z,80.57
2022-11-16T15:46:48.094Z,80.45
2022-11-16T15:49:33.559Z,80.68
2022-11-16T15:52:01.027Z,80.78
2022-11-16T15:54:58.669Z,80.77
2022-11-16T15:57:25.408Z,81.25
2022-11-16T15:59:54.757Z,81.47
2022-11-16T16:02:23.594Z,81.60
2022-11-16T16:04:50.538Z,81.82
2022-11-16T16:07:39.896Z,81.79
2022-11-16T16:10:18.772Z,82.26
2022-11-16T16:12:53.932Z,82.06
2022-11-16T16:15:29.796Z,82.97
2022-11-16T16:17:57.888Z,82.85
2022-11-16T16:20:27.399Z,82.84
2022-11-16T16:23:04.490Z,82.96
2022-11-16T16:25:33.292Z,83.64
2022-11-16T16:28:00.310Z,83.33
2022-11-16T16:30:28.778Z,83.47
2022-11-16T16:32:55.834Z,83.58
2022-11-16T16:35:25.038Z,83.82
2022-11-16T16:37:57.596Z,83.67
2022-11-16T16:40:24.938Z,83.52
2022-11-16T16:42:53.154Z,83.71
2022-11-16T16:45:37.048Z,83.87
2022-11-16T16:48:03.882Z,83.44
2022-11-16T16:50:30.413Z,83.61
2022-11-16T16:52:56.851Z,84.07
2022-11-16T16:55:23.377Z,84.05
2022-11-16T16:57:49.856Z,83.97
2022-11-16T17:00:17.038Z,83.86
2022-11-16T17:02:43.622Z,83.94
2022-11-16T17:05:10.056Z,84.12
2022-11-16T17:07:36.836Z,84.01
2022-11-16T17:10:03.612Z,84.07
2022-11-16T17:12:30.077Z,83.91
2022-11-16T17:14:56.535Z,84.17
2022-11-16T17:17:26.360Z,83.97
2022-11-16T17:19:52.898Z,83.80
2022-11-16T17:22:20.454Z,83.69
2022-11-16T17:24:47.268Z,83.45
2022-11-16T17:27:14.064Z,84.32
2022-11-16T17:29:40.485Z,84.21
2022-11-16T17:32:07.167Z,84.13
2022-11-16T17:34:33.804Z,84.14
2022-11-16T17:37:00.412Z,84.34
2022-11-16T17:39:26.869Z,84.25
2022-11-16T17:41:53.326Z,84.31
2022-11-16T17:44:21.951Z,84.03
2022-11-16T17:46:48.856Z,84.13
2022-11-16T17:49:15.504Z,84.21
2022-11-16T17:51:42.238Z,83.93
2022-11-16T17:54:08.662Z,83.96
2022-11-16T17:56:35.187Z,83.94
2022-11-16T17:59:01.669Z,83.57
2022-11-16T18:01:28.453Z,83.95
2022-11-16T18:03:55.120Z,83.70
2022-11-16T18:06:23.716Z,84.01
2022-11-16T18:08:50.287Z,83.03
2022-11-16T18:11:25.459Z,83.14
2022-11-16T18:13:57.010Z,83.75
2022-11-16T18:16:26.355Z,83.16
2022-11-16T18:18:57.994Z,82.95
2022-11-16T18:21:24.807Z,83.46
2022-11-16T18:23:51.431Z,82.33
2022-11-16T18:26:20.516Z,82.83
2022-11-16T18:28:51.145Z,83.33
2022-11-16T18:31:19.910Z,83.58
2022-11-16T18:33:47.460Z,83.24
2022-11-16T18:36:13.995Z,82.73
2022-11-16T18:38:40.532Z,83.33
2022-11-16T18:41:13.178Z,83.39
2022-11-16T18:43:41.654Z,83.35
2022-11-16T18:46:08.511Z,83.44
2022-11-16T18:48:35.017Z,83.80
2022-11-16T18:51:03.411Z,83.80
2022-11-16T18:53:32.221Z,83.60
2022-11-16T18:55:59.082Z,83.82
2022-11-16T18:58:49.310Z,83.90
2022-11-16T19:01:14.750Z,83.86
2022-11-16T19:03:42.005Z,83.78
2022-11-16T19:06:09.807Z,84.10
2022-11-16T19:08:41.955Z,83.73
2022-11-16T19:11:14.491Z,83.53
2022-11-16T19:13:43.039Z,84.02
2022-11-16T19:16:11.344Z,83.76
2022-11-16T19:18:38.349Z,83.38
2022-11-16T19:21:15.674Z,83.72
2022-11-16T19:23:44.728Z,84.12
2022-11-16T19:26:13.347Z,83.73
2022-11-16T19:28:44.802Z,83.59
2022-11-16T19:31:23.513Z,84.22
2022-11-16T19:33:56.943Z,84.62
2022-11-16T19:36:25.162Z,84.24
2022-11-16T19:38:51.962Z,84.01
2022-11-16T19:41:22.583Z,83.86
2022-11-16T19:43:52.415Z,84.15
2022-11-16T19:46:24.258Z,84.15
2022-11-16T19:48:51.610Z,84.32
2022-11-16T19:51:20.959Z,84.18
2022-11-16T19:53:48.041Z,84.31
2022-11-16T19:56:17.135Z,84.30
2022-11-16T19:58:44.631Z,84.09
2022-11-16T20:01:19.577Z,84.30
2022-11-16T20:03:48.439Z,84.43
2022-11-16T20:06:15.074Z,84.08
2022-11-16T20:08:46.608Z,84.55
2022-11-16T20:11:21.882Z,84.18
2022-11-16T20:13:49.890Z,84.48
2022-11-16T20:16:18.470Z,84.54
2022-11-16T20:18:45.687Z,84.52
2022-11-16T20:21:34.436Z,84.71
2022-11-16T20:24:06.461Z,84.85
2022-11-16T20:26:35.719Z,84.78
2022-11-16T20:29:02.976Z,84.57
2022-11-16T20:31:31.776Z,84.57
2022-11-16T20:34:00.393Z,84.98
2022-11-16T20:36:29.258Z,84.70
2022-11-16T20:38:59.540Z,84.92
2022-11-16T20:41:28.382Z,84.16
2022-11-16T20:43:56.712Z,84.36
2022-11-16T20:46:26.915Z,84.68
2022-11-16T20:48:54.555Z,84.41
2022-11-16T20:51:21.173Z,84.27
2022-11-16T20:53:49.143Z,84.76
2022-11-16T20:56:17.137Z,84.63
2022-11-16T20:58:43.579Z,84.58
2022-11-16T21:01:15.566Z,84.79
2022-11-16T21:03:44.399Z,84.82
2022-11-16T21:06:12.136Z,84.37
2022-11-16T21:08:39.667Z,84.37
2022-11-16T21:11:13.749Z,84.21
2022-11-16T21:13:58.793Z,83.99
2022-11-16T21:16:25.360Z,84.11
2022-11-16T21:18:54.249Z,84.47
2022-11-16T21:21:20.701Z,84.79
2022-11-16T21:23:51.632Z,84.41
2022-11-16T21:26:20.940Z,84.76
2022-11-16T21:28:47.621Z,84.59
2022-11-16T21:31:16.657Z,84.35
2022-11-16T21:33:47.093Z,84.50
2022-11-16T21:36:15.607Z,84.40
2022-11-16T21:38:42.650Z,84.51
2022-11-16T21:41:11.006Z,84.92
2022-11-16T21:43:38.350Z,84.31
2022-11-16T21:46:15.461Z,84.83
2022-11-16T21:48:42.100Z,84.32
2022-11-16T21:51:11.351Z,84.79
2022-11-16T21:53:38.310Z,84.72
2022-11-16T21:56:06.243Z,84.83
2022-11-16T21:58:32.793Z,84.86
2022-11-16T22:01:01.414Z,85.14
2022-11-16T22:03:30.422Z,84.94
2022-11-16T22:06:17.730Z,85.17
2022-11-16T22:08:45.001Z,85.02
2022-11-16T22:11:11.842Z,84.49
2022-11-16T22:13:38.731Z,84.75
2022-11-16T22:16:10.058Z,84.70
2022-11-16T22:18:37.257Z,85.01
2022-11-16T22:21:04.417Z,84.71
2022-11-16T22:23:31.979Z,85.17
2022-11-16T22:26:09.773Z,85.23
2022-11-16T22:28:37.351Z,85.24
2022-11-16T22:31:09.388Z,85.44
2022-11-16T22:33:36.227Z,85.44
2022-11-16T22:36:03.416Z,85.49
2022-11-16T22:38:30.104Z,85.91
2022-11-16T22:40:57.495Z,86.35
2022-11-16T22:43:26.495Z,86.96
2022-11-16T22:46:00.228Z,87.42
2022-11-16T22:48:33.603Z,87.92
2022-11-16T22:51:19.309Z,88.02
2022-11-16T22:53:46.224Z,88.32
2022-11-16T22:56:12.909Z,88.69
2022-11-16T22:58:39.994Z,89.04
2022-11-16T23:01:08.387Z,89.37
2022-11-16T23:03:35.915Z,89.66
2022-11-16T23:06:03.743Z,89.70
2022-11-16T23:08:30.199Z,90.39
2022-11-16T23:11:42.194Z,90.26
2022-11-16T23:14:38.033Z,90.50
2022-11-16T23:17:04.699Z,90.90
2022-11-16T23:19:49.872Z,91.32
2022-11-16T23:22:40.245Z,91.66
2022-11-16T23:25:26.442Z,91.79
2022-11-16T23:28:06.596Z,92.02
2022-11-16T23:30:34.857Z,92.35
2022-11-16T23:33:01.912Z,92.27
2022-11-16T23:35:28.367Z,92.61
2022-11-16T23:37:59.990Z,92.46
2022-11-16T23:40:29.266Z,92.91
2022-11-16T23:43:14.560Z,92.85
2022-11-16T23:45:42.689Z,93.05
2022-11-16T23:48:11.196Z,93.14
2022-11-16T23:50:37.757Z,93.07
2022-11-16T23:53:06.382Z,93.21
2022-11-16T23:55:34.465Z,93.21
2022-11-16T23:58:01.037Z,93.67
